Time;durP1;ratioP1;P1;durP2;ratioP2;P2;SDS_P1;SDS_P2;PMS_P1;PMS_P2;Temp;Humidity;BMP_temperature;BMP_pressure;BME280_temperature;BME280_humidity;BME280_pressure;Samples;Min_cycle;Max_cycle;Signal;HPM_P1;HPM_P2
2023/10/18 00:00:28;;;;;;;21.17;11.93;;;5.30;99.90;;;;;;4854482;29;20261;-78
2023/10/18 00:03:22;;;;;;;17.15;10.73;;;5.30;99.90;;;;;;4803265;29;20034;-78
2023/10/18 00:09:38;;;;;;;15.15;11.15;;;5.20;99.90;;;;;;4799812;29;20348;-78
2023/10/18 00:12:20;;;;;;;19.75;12.38;;;5.20;99.90;;;;;;4831824;29;20113;-77
2023/10/18 00:14:55;;;;;;;17.05;12.35;;;5.20;99.90;;;;;;4810224;29;20487;-78
2023/10/18 00:17:20;;;;;;;16.48;11.55;;;5.20;99.90;;;;;;4821973;29;20038;-78
2023/10/18 00:19:55;;;;;;;19.50;12.40;;;5.30;99.90;;;;;;4817597;29;20058;-78
2023/10/18 00:22:29;;;;;;;16.38;11.25;;;5.30;99.90;;;;;;4833066;29;20332;-77
2023/10/18 00:24:58;;;;;;;19.00;12.18;;;5.30;99.90;;;;;;4817470;29;20391;-77
2023/10/18 00:27:25;;;;;;;18.05;11.85;;;5.40;99.90;;;;;;4817671;29;20050;-77
2023/10/18 00:30:23;;;;;;;18.50;12.13;;;5.30;99.90;;;;;;4828821;29;20034;-79
2023/10/18 05:54:08;;;;;;;29.92;17.33;;;4.30;99.90;;;;;;5268028;23;20123;-77
2023/10/18 05:56:35;;;;;;;31.70;18.45;;;4.30;99.90;;;;;;4939246;29;20020;-78
2023/10/18 06:02:10;;;;;;;30.13;16.55;;;4.40;99.90;;;;;;4927474;29;20044;-76
2023/10/18 06:04:46;;;;;;;28.33;16.42;;;4.50;99.90;;;;;;4897883;29;20040;-76
2023/10/18 06:07:13;;;;;;;26.98;17.25;;;4.50;99.90;;;;;;4891485;29;20029;-76
2023/10/18 06:09:46;;;;;;;25.10;15.98;;;4.50;99.90;;;;;;4894955;29;20031;-76
2023/10/18 06:12:22;;;;;;;27.13;16.35;;;4.60;99.90;;;;;;4891184;29;20024;-76
2023/10/18 06:14:54;;;;;;;26.38;16.27;;;4.60;99.90;;;;;;4890354;29;20285;-77
2023/10/18 06:17:27;;;;;;;26.75;16.08;;;4.60;99.90;;;;;;4890750;29;20263;-76
2023/10/18 06:19:56;;;;;;;26.63;16.10;;;4.70;99.90;;;;;;4900699;29;20025;-76
2023/10/18 06:22:28;;;;;;;24.98;16.25;;;4.80;99.90;;;;;;4902918;29;20039;-76
2023/10/18 06:24:57;;;;;;;27.90;17.40;;;4.90;99.90;;;;;;4886667;29;20368;-76
2023/10/18 06:27:24;;;;;;;32.22;17.70;;;5.00;99.90;;;;;;4899064;29;20044;-75
2023/10/18 06:29:54;;;;;;;32.07;17.50;;;5.10;99.90;;;;;;4889682;29;20028;-78
2023/10/18 06:32:25;;;;;;;31.67;18.25;;;5.20;99.90;;;;;;4890484;29;20433;-75
2023/10/18 06:35:26;;;;;;;28.08;15.95;;;5.40;99.90;;;;;;4890595;29;20024;-77
2023/10/18 06:37:52;;;;;;;29.35;17.83;;;5.40;99.90;;;;;;4917891;29;20181;-77
2023/10/18 06:43:20;;;;;;;27.02;17.25;;;5.70;99.90;;;;;;4906313;29;20089;-76
2023/10/18 06:45:50;;;;;;;29.20;17.08;;;5.80;99.90;;;;;;4876378;29;20032;-76
2023/10/18 06:48:17;;;;;;;27.70;16.08;;;5.90;99.90;;;;;;4875264;29;20277;-76
2023/10/18 06:50:46;;;;;;;23.42;15.15;;;6.00;99.90;;;;;;4891897;29;20032;-76
2023/10/18 06:53:14;;;;;;;30.38;16.48;;;6.10;99.90;;;;;;4897806;29;20045;-77
2023/10/18 06:55:55;;;;;;;29.05;18.02;;;6.30;99.90;;;;;;4887557;29;20029;-77
2023/10/18 07:01:00;;;;;;;32.47;16.48;;;6.40;99.90;;;;;;4890124;29;20028;-78
2023/10/18 07:03:29;;;;;;;28.90;16.50;;;6.50;99.90;;;;;;4880378;29;20045;-78
2023/10/18 07:06:16;;;;;;;27.27;15.48;;;6.60;99.90;;;;;;4855887;29;20049;-78
2023/10/18 07:08:44;;;;;;;28.23;15.73;;;6.60;99.90;;;;;;4900033;29;20052;-78
2023/10/18 07:11:18;;;;;;;22.17;14.32;;;6.60;99.90;;;;;;4876151;29;20037;-78
2023/10/18 07:13:55;;;;;;;19.45;12.57;;;6.80;99.90;;;;;;4887943;29;20323;-77
2023/10/18 07:19:47;;;;;;;25.52;14.90;;;7.00;99.90;;;;;;4889582;29;20036;-78
2023/10/18 07:21:57;;;;;;;31.33;16.02;;;7.20;99.90;;;;;;4884309;29;20052;-78
2023/10/18 07:24:34;;;;;;;25.98;15.43;;;7.20;99.90;;;;;;4874253;29;20402;-77
2023/10/18 07:27:09;;;;;;;26.63;14.23;;;7.30;99.90;;;;;;4897280;29;20028;-78
2023/10/18 07:29:50;;;;;;;22.02;14.10;;;7.30;99.90;;;;;;4893002;29;20040;-78
2023/10/18 07:32:20;;;;;;;25.23;14.35;;;7.40;99.90;;;;;;4890026;29;20029;-76
2023/10/18 07:34:56;;;;;;;25.38;15.60;;;7.50;99.90;;;;;;4874528;29;20041;-78
2023/10/18 07:37:39;;;;;;;24.33;14.32;;;7.60;99.90;;;;;;4874365;29;20040;-78
2023/10/18 07:40:20;;;;;;;22.17;13.98;;;7.70;99.90;;;;;;4873954;29;20051;-77
2023/10/18 07:42:51;;;;;;;28.15;15.10;;;7.90;99.90;;;;;;4877889;29;20137;-77
2023/10/18 07:45:28;;;;;;;21.40;13.70;;;8.00;99.90;;;;;;4877560;29;20040;-77
2023/10/18 07:48:05;;;;;;;22.55;14.45;;;8.00;99.90;;;;;;4876780;29;20352;-76
2023/10/18 07:53:06;;;;;;;22.95;14.48;;;8.30;99.90;;;;;;4891601;29;20040;-76
2023/10/18 07:55:57;;;;;;;24.40;14.45;;;8.40;99.90;;;;;;4877762;29;20033;-77
2023/10/18 07:58:32;;;;;;;25.27;15.13;;;8.40;99.90;;;;;;4889363;29;20313;-78
2023/10/18 08:03:36;;;;;;;26.25;14.07;;;8.60;99.90;;;;;;4905140;29;20033;-78
2023/10/18 08:08:52;;;;;;;29.02;14.82;;;8.80;99.90;;;;;;4874142;29;20049;-77
2023/10/18 08:11:23;;;;;;;25.45;14.95;;;9.00;99.90;;;;;;4889766;29;20064;-77
2023/10/18 08:13:49;;;;;;;21.80;13.13;;;9.10;99.90;;;;;;4889621;29;20033;-76
2023/10/18 08:16:26;;;;;;;29.17;15.05;;;9.20;99.90;;;;;;4892551;29;20076;-78
2023/10/18 08:18:53;;;;;;;26.48;13.95;;;9.30;99.90;;;;;;4892353;29;20103;-78
2023/10/18 08:21:36;;;;;;;24.27;13.50;;;9.30;99.90;;;;;;4892821;29;20171;-77
2023/10/18 08:24:28;;;;;;;23.95;15.15;;;9.40;99.90;;;;;;4891875;29;20036;-79
2023/10/18 08:27:00;;;;;;;24.23;14.75;;;9.50;99.90;;;;;;4865735;29;20044;-77
2023/10/18 08:29:34;;;;;;;22.90;13.98;;;9.60;99.90;;;;;;4892458;29;20032;-77
2023/10/18 08:32:04;;;;;;;20.90;14.43;;;9.60;99.90;;;;;;4891710;29;20318;-79
2023/10/18 08:34:34;;;;;;;22.80;13.70;;;9.60;99.90;;;;;;4876445;29;20033;-77
2023/10/18 08:37:04;;;;;;;21.52;13.40;;;9.80;99.90;;;;;;4875974;29;20039;-77
2023/10/18 08:39:39;;;;;;;22.00;13.32;;;9.80;99.90;;;;;;4876683;29;20029;-76
2023/10/18 08:42:16;;;;;;;25.90;13.65;;;9.70;99.90;;;;;;4876144;29;20032;-77
2023/10/18 08:44:41;;;;;;;24.55;14.32;;;9.90;99.90;;;;;;4876487;29;20036;-76
2023/10/18 08:47:18;;;;;;;26.25;13.15;;;10.00;99.90;;;;;;4907933;29;20104;-76
2023/10/18 08:49:55;;;;;;;22.17;13.82;;;10.00;99.70;;;;;;4884035;29;20060;-77
2023/10/18 08:52:39;;;;;;;19.23;12.98;;;10.10;99.70;;;;;;4883659;29;20052;-77
2023/10/18 08:58:08;;;;;;;27.15;13.65;;;10.10;99.00;;;;;;4870273;29;20041;-77
2023/10/18 09:01:02;;;;;;;22.58;13.40;;;10.20;98.70;;;;;;4854235;29;20061;-77
2023/10/18 09:03:32;;;;;;;18.58;13.15;;;10.40;98.60;;;;;;4885859;29;20049;-76
2023/10/18 09:06:04;;;;;;;20.92;13.48;;;10.60;98.50;;;;;;4870567;29;20041;-76
2023/10/18 09:08:39;;;;;;;19.50;12.95;;;10.70;98.10;;;;;;4871272;29;20065;-77
2023/10/18 09:11:31;;;;;;;20.88;13.65;;;10.90;97.60;;;;;;4854571;29;20037;-76
2023/10/18 09:14:15;;;;;;;19.70;12.98;;;10.90;97.10;;;;;;4854287;29;20109;-77
2023/10/18 09:16:47;;;;;;;19.42;11.98;;;11.00;96.70;;;;;;4869464;29;20033;-74
2023/10/18 09:19:27;;;;;;;20.92;13.30;;;11.10;96.50;;;;;;4853389;29;20033;-77
2023/10/18 09:22:01;;;;;;;19.85;12.65;;;11.20;96.10;;;;;;4868388;29;20064;-79
2023/10/18 09:24:32;;;;;;;19.55;13.35;;;11.30;95.60;;;;;;4870978;29;20037;-76
2023/10/18 09:27:04;;;;;;;18.98;12.48;;;11.30;95.80;;;;;;4854036;29;20429;-75
2023/10/18 09:29:39;;;;;;;18.67;12.55;;;11.40;95.80;;;;;;4854199;29;20199;-74
2023/10/18 09:32:32;;;;;;;22.70;13.75;;;11.60;95.40;;;;;;4852755;29;20075;-74
2023/10/18 09:35:10;;;;;;;19.50;12.57;;;11.70;95.10;;;;;;4845859;29;20052;-78
2023/10/18 09:37:45;;;;;;;19.80;13.05;;;11.80;95.10;;;;;;4870473;29;20037;-76
2023/10/18 09:40:22;;;;;;;20.23;13.23;;;11.80;94.60;;;;;;4869385;29;20176;-75
2023/10/18 09:42:53;;;;;;;22.70;13.73;;;11.90;94.70;;;;;;4884934;29;20045;-76
2023/10/18 09:45:20;;;;;;;20.63;12.82;;;12.00;94.50;;;;;;4884957;29;20045;-77
2023/10/18 09:47:54;;;;;;;20.63;13.48;;;12.00;94.30;;;;;;4886089;29;20025;-77
2023/10/18 09:51:01;;;;;;;21.35;13.55;;;12.10;93.90;;;;;;4869926;29;20064;-77
2023/10/18 09:53:30;;;;;;;19.80;12.70;;;12.30;93.70;;;;;;4890235;29;20044;-76
2023/10/18 09:56:07;;;;;;;17.42;11.35;;;12.60;93.30;;;;;;4902997;29;20084;-76
2023/10/18 09:58:48;;;;;;;18.77;12.50;;;12.80;92.90;;;;;;4875872;29;20207;-76
2023/10/18 10:04:35;;;;;;;20.40;12.27;;;12.80;91.80;;;;;;4900197;29;20210;-77
2023/10/18 10:09:53;;;;;;;20.02;12.98;;;12.90;91.80;;;;;;4907092;29;20060;-80
2023/10/18 10:12:36;;;;;;;18.48;12.48;;;13.00;92.00;;;;;;4890117;29;20040;-78
2023/10/18 10:15:13;;;;;;;18.15;11.95;;;13.10;91.70;;;;;;4890435;29;20336;-78
2023/10/18 10:17:55;;;;;;;19.75;12.90;;;13.30;91.50;;;;;;4906265;29;20024;-78
2023/10/18 10:20:31;;;;;;;22.77;13.15;;;13.50;91.00;;;;;;4889934;29;20029;-76
2023/10/18 10:23:15;;;;;;;18.55;12.15;;;13.70;90.50;;;;;;4906437;29;20236;-78
2023/10/18 10:26:22;;;;;;;22.00;12.63;;;13.90;90.40;;;;;;4905716;29;20222;-78
2023/10/18 10:32:05;;;;;;;19.65;12.23;;;14.50;89.30;;;;;;4907271;29;20037;-77
2023/10/18 10:34:42;;;;;;;18.00;11.77;;;14.70;88.40;;;;;;4902074;29;20036;-82
2023/10/18 10:37:23;;;;;;;18.13;12.40;;;14.90;87.30;;;;;;4895813;29;20028;-79
2023/10/18 10:42:46;;;;;;;17.95;11.70;;;15.30;85.50;;;;;;4924831;29;20108;-76
2023/10/18 10:45:38;;;;;;;18.77;12.07;;;15.80;84.30;;;;;;4908676;29;20054;-75
2023/10/18 10:48:37;;;;;;;22.15;11.63;;;16.40;82.10;;;;;;4908848;29;20076;-76
2023/10/18 10:51:21;;;;;;;16.33;10.45;;;16.90;80.90;;;;;;4930489;29;20044;-73
2023/10/18 10:54:07;;;;;;;14.52;10.48;;;17.60;77.40;;;;;;4912803;29;20032;-76
2023/10/18 10:56:33;;;;;;;13.30;9.63;;;18.50;75.10;;;;;;4897976;29;20196;-76
2023/10/18 10:59:15;;;;;;;12.82;9.43;;;19.10;72.90;;;;;;4909442;29;20036;-77
2023/10/18 11:01:43;;;;;;;13.32;9.70;;;19.50;72.40;;;;;;4894252;29;20104;-77
2023/10/18 11:04:24;;;;;;;16.88;10.48;;;20.00;70.30;;;;;;4909138;29;20035;-74
2023/10/18 11:06:53;;;;;;;14.32;9.30;;;20.40;69.40;;;;;;4893513;29;20076;-78
2023/10/18 11:09:32;;;;;;;12.43;8.73;;;20.70;68.10;;;;;;4890238;29;20334;-75
2023/10/18 11:12:04;;;;;;;12.27;10.18;;;20.70;67.70;;;;;;4883202;29;20033;-75
2023/10/18 11:14:35;;;;;;;13.75;10.18;;;20.10;68.30;;;;;;4912924;29;20056;-74
2023/10/18 11:20:19;;;;;;;14.50;9.43;;;20.70;67.20;;;;;;4927518;29;20090;-79
2023/10/18 11:22:45;;;;;;;12.77;9.20;;;20.90;66.70;;;;;;4928291;29;20091;-79
2023/10/18 11:25:30;;;;;;;14.18;9.48;;;20.80;66.70;;;;;;4912246;29;20036;-79
2023/10/18 11:31:08;;;;;;;15.23;8.95;;;19.40;68.90;;;;;;4915287;29;20100;-80
2023/10/18 11:37:34;;;;;;;14.88;9.50;;;18.10;72.10;;;;;;4909833;29;20029;-77
2023/10/18 11:43:50;;;;;;;13.93;9.80;;;17.40;75.20;;;;;;4909582;29;20087;-77
2023/10/18 11:46:28;;;;;;;15.02;9.43;;;17.50;75.40;;;;;;4923467;29;20036;-76
2023/10/18 11:49:42;;;;;;;14.93;9.40;;;17.60;75.20;;;;;;4875159;29;20315;-78
2023/10/18 11:52:52;;;;;;;11.73;8.48;;;17.90;74.80;;;;;;4851781;29;20048;-77
2023/10/18 11:55:57;;;;;;;12.07;8.15;;;18.10;74.00;;;;;;4851895;29;20083;-77
2023/10/18 11:59:00;;;;;;;10.90;7.90;;;18.30;72.90;;;;;;4863517;29;20053;-77
2023/10/18 12:01:59;;;;;;;11.48;8.07;;;18.30;73.50;;;;;;4842649;29;20112;-76
2023/10/18 12:04:28;;;;;;;11.75;6.88;;;18.30;73.50;;;;;;4854642;29;20331;-77
2023/10/18 12:06:57;;;;;;;10.02;7.22;;;18.20;72.90;;;;;;4854268;29;20105;-77
2023/10/18 12:09:26;;;;;;;11.55;7.28;;;18.10;72.70;;;;;;4854155;29;20053;-77
2023/10/18 12:11:56;;;;;;;12.00;7.00;;;18.00;73.20;;;;;;4854507;29;20037;-77
2023/10/18 12:14:41;;;;;;;9.68;6.63;;;17.90;74.40;;;;;;4869483;29;20053;-78
2023/10/18 12:17:22;;;;;;;9.63;6.32;;;17.80;74.40;;;;;;4869351;29;20099;-79
2023/10/18 12:19:58;;;;;;;9.13;6.77;;;17.80;74.60;;;;;;4902968;29;20334;-78
2023/10/18 12:22:24;;;;;;;10.25;6.32;;;17.60;74.20;;;;;;4906977;29;20318;-77
2023/10/18 12:24:51;;;;;;;10.95;6.47;;;17.70;74.40;;;;;;4900735;29;20110;-77
2023/10/18 12:27:43;;;;;;;8.63;5.93;;;17.70;74.00;;;;;;4889710;29;20378;-79
2023/10/18 12:30:56;;;;;;;8.82;5.88;;;17.40;74.50;;;;;;4888907;29;20065;-77
2023/10/18 12:33:49;;;;;;;8.20;5.20;;;17.30;75.30;;;;;;4903624;29;20060;-76
2023/10/18 12:36:32;;;;;;;9.70;5.70;;;17.30;75.30;;;;;;4888539;29;20066;-78
2023/10/18 12:38:58;;;;;;;8.57;5.55;;;17.50;74.30;;;;;;4889900;29;20041;-77
2023/10/18 12:41:33;;;;;;;7.97;5.45;;;17.70;74.80;;;;;;4902164;29;20068;-75
2023/10/18 12:44:10;;;;;;;8.27;5.57;;;17.80;74.30;;;;;;4891952;29;20059;-76
2023/10/18 12:46:58;;;;;;;10.57;6.20;;;17.90;74.40;;;;;;4906866;29;20263;-76
2023/10/18 12:49:32;;;;;;;9.55;5.95;;;17.80;74.00;;;;;;4907691;29;20421;-76
2023/10/18 12:53:16;;;;;;;8.48;5.60;;;17.80;74.00;;;;;;4907506;29;20045;-77
2023/10/18 12:55:43;;;;;;;8.20;5.32;;;17.60;74.60;;;;;;4889969;29;20048;-77
2023/10/18 13:04:18;;;;;;;10.13;6.00;;;17.40;75.00;;;;;;4889975;29;20045;-79
2023/10/18 13:06:51;;;;;;;9.80;4.60;;;17.20;76.40;;;;;;4903287;29;20097;-79
2023/10/18 13:09:29;;;;;;;11.50;5.88;;;17.20;75.80;;;;;;4902451;29;20056;-78
2023/10/18 13:12:07;;;;;;;9.23;5.68;;;17.00;75.80;;;;;;4885635;29;20076;-77
2023/10/18 13:14:42;;;;;;;13.38;5.75;;;16.90;76.50;;;;;;4888691;29;20033;-77
2023/10/18 13:17:42;;;;;;;7.65;4.75;;;16.80;76.90;;;;;;4887302;29;20052;-78
2023/10/18 13:20:34;;;;;;;8.23;5.00;;;16.80;75.90;;;;;;4887577;29;20064;-77
2023/10/18 13:23:18;;;;;;;7.15;4.55;;;16.80;76.20;;;;;;4873135;29;20080;-80
2023/10/18 13:25:55;;;;;;;10.27;4.50;;;17.00;76.00;;;;;;4887833;29;20357;-76
2023/10/18 13:28:33;;;;;;;6.45;3.90;;;17.10;75.10;;;;;;4903527;29;20044;-77
2023/10/18 13:33:55;;;;;;;5.55;3.58;;;17.30;74.50;;;;;;4884858;29;20041;-77
2023/10/18 13:36:26;;;;;;;7.40;3.72;;;17.10;74.40;;;;;;4884552;29;20101;-79
2023/10/18 13:39:01;;;;;;;4.65;3.20;;;17.10;74.70;;;;;;4870561;29;20030;-76
2023/10/18 13:41:27;;;;;;;4.57;3.05;;;17.10;74.60;;;;;;4884624;29;20145;-78
2023/10/18 13:44:04;;;;;;;6.15;3.28;;;17.20;74.40;;;;;;4885879;29;20271;-79
2023/10/18 13:46:33;;;;;;;6.40;3.63;;;17.00;74.90;;;;;;4885360;29;20037;-78
2023/10/18 13:49:33;;;;;;;6.78;3.65;;;16.90;74.70;;;;;;4883512;29;20113;-79
2023/10/18 13:52:16;;;;;;;4.70;3.10;;;16.70;75.40;;;;;;4888222;29;20315;-80
2023/10/18 13:55:23;;;;;;;6.15;2.92;;;16.80;75.20;;;;;;4907373;29;20079;-80
2023/10/18 13:58:24;;;;;;;5.55;3.30;;;16.70;74.90;;;;;;4903950;29;20043;-76
2023/10/18 14:00:55;;;;;;;5.68;2.90;;;16.50;75.20;;;;;;4855969;29;20053;-80
2023/10/18 14:04:05;;;;;;;4.47;3.15;;;16.40;76.00;;;;;;4903776;29;20099;-78
2023/10/18 14:06:48;;;;;;;5.75;3.58;;;16.20;75.90;;;;;;4901826;29;20203;-79
2023/10/18 14:09:38;;;;;;;6.03;3.88;;;16.10;76.10;;;;;;4906634;29;20036;-78
2023/10/18 14:12:10;;;;;;;5.80;3.55;;;15.90;76.50;;;;;;4906501;29;20326;-76
2023/10/18 14:14:47;;;;;;;5.43;4.03;;;15.90;76.40;;;;;;4907864;29;20029;-76
2023/10/18 14:17:42;;;;;;;7.43;4.40;;;15.80;76.80;;;;;;4906136;29;20043;-79
2023/10/18 14:20:24;;;;;;;7.07;4.75;;;15.80;76.60;;;;;;4905701;29;20044;-79
2023/10/18 14:22:58;;;;;;;8.13;5.20;;;15.70;76.20;;;;;;4887452;29;20044;-79
2023/10/18 14:25:31;;;;;;;7.45;5.28;;;15.60;76.70;;;;;;4909889;29;20036;-80
2023/10/18 14:28:08;;;;;;;8.20;5.53;;;15.50;77.00;;;;;;4909731;29;20045;-78
2023/10/18 14:30:46;;;;;;;7.70;5.05;;;15.40;77.60;;;;;;4909847;29;20037;-76
2023/10/18 14:33:19;;;;;;;7.88;5.68;;;15.30;78.30;;;;;;4925117;29;20056;-79
2023/10/18 14:35:48;;;;;;;8.35;5.57;;;15.20;78.90;;;;;;4909653;29;20029;-77
2023/10/18 14:38:14;;;;;;;9.23;5.53;;;15.10;79.60;;;;;;4893113;29;20028;-76
2023/10/18 14:40:55;;;;;;;10.43;6.03;;;15.10;80.30;;;;;;4909216;29;20033;-76
2023/10/18 14:43:25;;;;;;;7.90;5.55;;;14.90;80.80;;;;;;4910195;29;20035;-75
2023/10/18 14:46:02;;;;;;;9.10;6.10;;;14.90;81.40;;;;;;4909594;29;20130;-75
2023/10/18 14:48:41;;;;;;;8.38;6.38;;;14.90;82.30;;;;;;4910140;29;20036;-75
2023/10/18 14:51:17;;;;;;;8.15;5.30;;;14.80;82.50;;;;;;4926496;29;20029;-76
2023/10/18 14:53:44;;;;;;;11.52;6.07;;;14.90;82.40;;;;;;4913513;29;20052;-78
2023/10/18 14:56:19;;;;;;;12.98;5.85;;;14.90;84.60;;;;;;4909557;29;20040;-75
2023/10/18 14:58:49;;;;;;;8.20;5.67;;;14.90;88.90;;;;;;4924855;29;20035;-76
2023/10/18 15:01:15;;;;;;;10.20;6.47;;;14.80;88.50;;;;;;4899803;29;20579;-75
2023/10/18 15:03:48;;;;;;;9.07;6.22;;;14.70;90.40;;;;;;4901914;29;20223;-76
2023/10/18 15:06:18;;;;;;;9.52;6.53;;;14.60;91.40;;;;;;4904932;29;20310;-76
2023/10/18 15:08:44;;;;;;;9.38;6.68;;;14.40;90.90;;;;;;4905411;29;20348;-74
2023/10/18 15:11:17;;;;;;;10.48;6.45;;;14.30;91.60;;;;;;4913328;29;20031;-75
2023/10/18 15:14:11;;;;;;;11.07;7.13;;;14.20;92.30;;;;;;4911488;29;20031;-75
2023/10/18 15:16:40;;;;;;;;;;;14.10;93.30;;;;;;4927748;29;20044;-77
2023/10/18 15:19:09;;;;;;;10.48;7.20;;;14.00;93.30;;;;;;4894967;29;19955;-78
2023/10/18 15:21:48;;;;;;;11.25;6.90;;;13.90;94.60;;;;;;5000476;23;20063;-72
2023/10/18 15:24:14;;;;;;;9.68;7.18;;;13.90;94.60;;;;;;4938113;29;20040;-74
2023/10/18 15:26:42;;;;;;;10.07;6.35;;;13.90;94.50;;;;;;4909896;29;20028;-74
2023/10/18 15:29:08;;;;;;;9.88;6.43;;;13.80;94.90;;;;;;4935384;29;20035;-77
2023/10/18 15:32:07;;;;;;;10.70;6.85;;;13.70;95.60;;;;;;4928380;29;20372;-79
2023/10/18 15:35:05;;;;;;;8.80;6.65;;;13.70;96.20;;;;;;4913257;29;20035;-75
2023/10/18 15:37:45;;;;;;;10.23;7.30;;;13.60;96.60;;;;;;4906699;29;20032;-75
2023/10/18 15:40:15;;;;;;;9.38;6.07;;;13.60;97.50;;;;;;4909904;29;20043;-72
2023/10/18 15:42:44;;;;;;;10.55;7.32;;;13.50;98.40;;;;;;4908974;29;20059;-76
2023/10/18 15:45:25;;;;;;;9.55;6.50;;;13.30;98.70;;;;;;4911565;29;20043;-74
2023/10/18 15:47:54;;;;;;;9.95;6.80;;;13.20;99.60;;;;;;4908487;29;20052;-75
2023/10/18 15:50:32;;;;;;;10.25;7.00;;;13.20;99.90;;;;;;4908948;29;20040;-74
2023/10/18 15:53:07;;;;;;;10.98;7.70;;;13.10;99.90;;;;;;4908024;29;20333;-74
2023/10/18 15:55:35;;;;;;;11.93;7.55;;;13.10;99.90;;;;;;4909588;29;20052;-73
2023/10/18 15:58:11;;;;;;;10.55;7.03;;;13.00;99.90;;;;;;4896906;29;20047;-79
2023/10/18 16:00:38;;;;;;;9.85;7.47;;;13.00;99.90;;;;;;4877061;29;20040;-80
2023/10/18 16:03:04;;;;;;;10.02;7.45;;;13.00;99.90;;;;;;4893219;29;20128;-79
2023/10/18 16:06:19;;;;;;;11.43;7.45;;;12.90;99.90;;;;;;4895868;29;20036;-74
2023/10/18 16:08:55;;;;;;;11.98;8.20;;;12.90;99.90;;;;;;4891906;29;20307;-74
2023/10/18 16:11:33;;;;;;;11.25;7.72;;;12.80;99.90;;;;;;4892245;29;20230;-74
2023/10/18 16:14:10;;;;;;;12.40;8.18;;;12.70;99.90;;;;;;4909238;29;20099;-73
2023/10/18 16:17:00;;;;;;;13.88;8.52;;;12.50;99.90;;;;;;4891871;29;20036;-75
2023/10/18 16:20:01;;;;;;;12.93;8.70;;;12.40;99.90;;;;;;4894969;29;20048;-75
2023/10/18 16:23:18;;;;;;;14.98;9.45;;;12.30;99.90;;;;;;4891489;29;20115;-75
2023/10/18 16:43:05;;;;;;;13.80;8.85;;;12.00;99.90;;;;;;4893290;29;20044;-76
2023/10/18 16:45:58;;;;;;;12.98;8.52;;;12.00;99.90;;;;;;4891938;29;20105;-76
2023/10/18 16:48:59;;;;;;;13.55;8.65;;;11.90;99.90;;;;;;4868019;29;20137;-75
2023/10/18 16:51:58;;;;;;;12.48;8.50;;;11.90;99.90;;;;;;4869667;29;20338;-76
2023/10/18 16:55:02;;;;;;;;;;;;;;;;;;;;;
2023/10/18 16:58:10;;;;;;;14.65;9.63;;;11.80;99.90;;;;;;4825590;29;20042;-75
2023/10/18 17:00:55;;;;;;;14.90;9.52;;;11.70;99.90;;;;;;4813413;29;20083;-76
2023/10/18 17:03:42;;;;;;;14.45;9.60;;;11.70;99.90;;;;;;4810489;29;20102;-75
2023/10/18 17:06:44;;;;;;;14.68;9.80;;;11.60;99.90;;;;;;4811182;29;20038;-79
2023/10/18 17:10:07;;;;;;;12.95;9.68;;;11.60;99.90;;;;;;4814069;29;20051;-76
2023/10/18 17:13:23;;;;;;;14.02;9.52;;;11.60;99.90;;;;;;4796863;30;20032;-77
2023/10/18 17:15:56;;;;;;;12.93;8.70;;;11.70;99.90;;;;;;4778195;30;20393;-78
2023/10/18 17:18:59;;;;;;;13.27;9.07;;;11.70;99.90;;;;;;4785427;29;20102;-80
2023/10/18 17:22:05;;;;;;;11.88;9.13;;;11.70;99.90;;;;;;4814262;29;20312;-83
2023/10/18 17:27:41;;;;;;;14.75;10.00;;;11.70;99.90;;;;;;4817103;29;20253;-82
2023/10/18 17:30:12;;;;;;;16.95;9.80;;;11.70;99.90;;;;;;4830644;29;20168;-77
2023/10/18 17:33:35;;;;;;;;;;;;;;;;;;;;;
2023/10/18 17:40:23;;;;;;;14.52;9.93;;;11.80;99.90;;;;;;4851362;29;20025;-80
2023/10/18 17:47:00;;;;;;;13.88;9.80;;;11.80;99.90;;;;;;4850971;29;20029;-78
2023/10/18 17:49:55;;;;;;;16.35;11.02;;;11.70;99.90;;;;;;4867599;29;20041;-80
2023/10/18 17:52:57;;;;;;;15.23;9.52;;;11.70;99.90;;;;;;4906718;29;20032;-78
2023/10/18 17:56:12;;;;;;;15.10;10.20;;;11.70;99.90;;;;;;4838472;29;20064;-81
2023/10/18 17:59:05;;;;;;;15.18;10.20;;;11.70;99.90;;;;;;4807465;29;20046;-78
2023/10/18 18:06:41;;;;;;;12.40;9.13;;;11.60;99.90;;;;;;4815167;29;20033;-79
2023/10/18 18:09:53;;;;;;;15.00;9.60;;;11.70;99.90;;;;;;4780283;30;20063;-80
2023/10/18 18:16:27;;;;;;;15.68;10.02;;;11.60;99.90;;;;;;4790996;30;20133;-80
2023/10/18 19:05:11;;;;;;;12.98;8.98;;;11.40;99.90;;;;;;4905945;29;20040;-80
2023/10/18 19:07:42;;;;;;;14.25;9.05;;;11.50;99.90;;;;;;4891669;29;20033;-79
2023/10/18 19:10:16;;;;;;;13.18;9.38;;;11.60;99.90;;;;;;4892678;29;20034;-78
2023/10/18 19:16:05;;;;;;;17.00;11.48;;;11.60;99.90;;;;;;4909307;29;20060;-82
2023/10/18 19:18:44;;;;;;;15.95;11.60;;;11.60;99.90;;;;;;4922450;29;20033;-79
2023/10/18 19:21:17;;;;;;;18.23;12.10;;;11.60;99.90;;;;;;4876545;29;20305;-79
2023/10/18 19:23:55;;;;;;;16.80;12.38;;;11.60;99.90;;;;;;4892671;29;20165;-78
2023/10/18 19:38:48;;;;;;;18.33;12.57;;;11.50;99.90;;;;;;4903814;29;20027;-79
2023/10/18 19:41:48;;;;;;;20.92;12.60;;;11.50;99.90;;;;;;4892265;29;20327;-81
2023/10/18 19:44:38;;;;;;;17.77;12.25;;;11.50;99.90;;;;;;4890678;29;20040;-82
2023/10/18 19:47:15;;;;;;;16.67;12.50;;;11.50;99.90;;;;;;4897110;29;20036;-79
2023/10/18 19:50:41;;;;;;;17.00;12.52;;;11.50;99.90;;;;;;4902044;29;20043;-78
2023/10/18 19:53:49;;;;;;;21.60;13.45;;;11.60;99.90;;;;;;4874931;29;20433;-80
2023/10/18 19:57:37;;;;;;;17.65;12.57;;;11.60;99.90;;;;;;4871356;29;20077;-80
2023/10/18 20:00:46;;;;;;;;;;;;;;;;;;;;;
2023/10/18 20:23:06;;;;;;;19.75;14.15;;;11.70;99.90;;;;;;4834724;29;20052;-81
2023/10/18 20:25:40;;;;;;;21.23;14.98;;;11.60;99.90;;;;;;4819450;29;20045;-81
2023/10/18 20:28:10;;;;;;;21.02;14.07;;;11.60;99.90;;;;;;4820157;29;20046;-78
2023/10/18 20:30:45;;;;;;;24.73;15.90;;;11.60;99.90;;;;;;4819771;29;20038;-81
2023/10/18 20:33:43;;;;;;;20.05;15.23;;;11.50;99.90;;;;;;4826991;29;20436;-82
2023/10/18 20:36:14;;;;;;;21.17;14.68;;;11.60;99.90;;;;;;4849831;29;20045;-81
2023/10/18 20:38:48;;;;;;;21.83;15.63;;;11.50;99.90;;;;;;4835333;29;20080;-80
2023/10/18 20:41:20;;;;;;;22.85;15.82;;;11.60;99.90;;;;;;4859839;29;20063;-82
2023/10/18 20:43:57;;;;;;;23.55;16.90;;;11.50;99.90;;;;;;4837194;29;20042;-81
2023/10/18 20:50:18;;;;;;;23.73;15.65;;;11.50;99.90;;;;;;4797221;29;20043;-81
2023/10/18 20:53:15;;;;;;;24.58;16.45;;;11.50;99.90;;;;;;4798378;30;20332;-81
2023/10/18 20:56:43;;;;;;;23.77;16.38;;;11.50;99.90;;;;;;4797884;30;20085;-79
2023/10/18 21:03:34;;;;;;;20.50;14.05;;;11.50;99.90;;;;;;4797173;29;20095;-79
2023/10/18 21:06:38;;;;;;;23.65;15.57;;;11.40;99.90;;;;;;4796896;29;20070;-79
2023/10/18 21:13:49;;;;;;;20.45;15.43;;;11.50;99.90;;;;;;4760304;29;20039;-81
2023/10/18 21:16:30;;;;;;;21.38;15.25;;;11.50;99.90;;;;;;4746260;30;20128;-80
2023/10/18 21:20:33;;;;;;;21.48;15.68;;;11.50;99.90;;;;;;4750803;30;20346;-79
2023/10/18 21:26:57;;;;;;;23.25;15.23;;;11.50;99.90;;;;;;4754569;30;20134;-79
2023/10/18 21:37:09;;;;;;;21.67;14.05;;;11.50;99.90;;;;;;4780113;29;20069;-80
2023/10/18 21:39:57;;;;;;;22.87;15.27;;;11.40;99.90;;;;;;4763773;30;20051;-79
2023/10/18 21:45:19;;;;;;;21.27;15.75;;;11.50;99.90;;;;;;4784744;29;20050;-78
2023/10/18 21:48:24;;;;;;;21.85;15.50;;;11.50;99.90;;;;;;4803914;29;20035;-77
2023/10/18 21:51:05;;;;;;;;;;;11.50;99.90;;;;;;4808125;29;20026;-78
2023/10/18 22:04:26;;;;;;;21.30;16.00;;;11.40;99.90;;;;;;4848784;29;20097;-79
2023/10/18 22:06:55;;;;;;;24.20;17.45;;;11.50;99.90;;;;;;4838687;29;20030;-79
2023/10/18 22:09:44;;;;;;;23.65;16.35;;;11.50;99.90;;;;;;4819701;29;20219;-78
2023/10/18 23:00:41;;;;;;;28.52;17.35;;;11.50;99.90;;;;;;4814660;29;20038;-81
2023/10/18 23:03:14;;;;;;;28.50;16.77;;;11.50;99.90;;;;;;4804186;29;20042;-79
2023/10/18 23:14:23;;;;;;;24.30;15.20;;;11.60;99.90;;;;;;4871394;29;20025;-78
2023/10/18 23:17:17;;;;;;;21.42;15.55;;;11.60;99.90;;;;;;4840511;29;20118;-78
2023/10/18 23:20:19;;;;;;;21.67;15.45;;;11.60;99.90;;;;;;4803238;29;20053;-79
